createdAt,value
2024-03-20T00:00:47.540Z,63.98
2024-03-20T00:03:39.353Z,64.04
2024-03-20T00:06:11.048Z,64.13
2024-03-20T00:08:42.829Z,64.12
2024-03-20T00:11:14.578Z,64.07
2024-03-20T00:13:46.335Z,64.07
2024-03-20T00:16:18.128Z,64.17
2024-03-20T00:18:49.768Z,63.98
2024-03-20T00:21:22.905Z,64.11
2024-03-20T00:23:54.532Z,64.06
2024-03-20T00:26:26.268Z,64.09
2024-03-20T00:28:58.097Z,64.06
2024-03-20T00:31:29.619Z,64.15
2024-03-20T00:34:01.527Z,64.18
2024-03-20T00:36:33.541Z,64.09
2024-03-20T00:39:07.009Z,64.13
2024-03-20T00:41:38.644Z,64.10
2024-03-20T00:44:10.460Z,63.93
2024-03-20T00:46:42.200Z,63.83
2024-03-20T00:49:14.032Z,64.14
2024-03-20T00:51:45.809Z,63.99
2024-03-20T00:54:17.339Z,64.21
2024-03-20T00:56:48.880Z,64.15
2024-03-20T00:59:21.568Z,63.97
2024-03-20T01:01:53.021Z,64.03
2024-03-20T01:04:25.028Z,64.05
2024-03-20T01:06:56.892Z,64.05
2024-03-20T01:09:28.676Z,64.05
2024-03-20T01:12:00.509Z,63.96
2024-03-20T01:14:32.174Z,64.01
2024-03-20T01:17:03.777Z,64.04
2024-03-20T01:19:35.619Z,64.03
2024-03-20T01:22:07.575Z,63.95
2024-03-20T01:24:39.450Z,64.01
2024-03-20T01:27:11.117Z,64.03
2024-03-20T01:29:42.900Z,64.18
2024-03-20T01:32:14.559Z,64.15
2024-03-20T01:34:46.344Z,64.15
2024-03-20T01:37:17.993Z,64.20
2024-03-20T01:39:49.803Z,64.10
2024-03-20T01:42:21.356Z,63.98
2024-03-20T01:45:10.861Z,64.04
2024-03-20T01:47:43.446Z,64.15
2024-03-20T01:50:16.681Z,64.24
2024-03-20T01:52:56.019Z,64.14
2024-03-20T01:55:27.871Z,64.05
2024-03-20T01:57:59.569Z,64.21
2024-03-20T02:00:31.583Z,64.08
2024-03-20T02:03:04.868Z,64.09
2024-03-20T02:05:36.747Z,64.13
2024-03-20T02:08:09.237Z,64.12
2024-03-20T02:10:41.061Z,64.06
2024-03-20T02:13:12.827Z,64.16
2024-03-20T02:15:44.592Z,64.14
2024-03-20T02:18:16.359Z,64.11
2024-03-20T02:20:48.064Z,64.22
2024-03-20T02:23:20.254Z,64.19
2024-03-20T02:25:51.859Z,64.14
2024-03-20T02:28:23.607Z,64.18
2024-03-20T02:30:55.202Z,64.09
2024-03-20T02:33:27.085Z,64.22
2024-03-20T02:35:59.008Z,64.23
2024-03-20T02:38:33.370Z,64.20
2024-03-20T02:41:06.109Z,64.27
2024-03-20T02:43:38.274Z,64.17
2024-03-20T02:46:09.955Z,64.18
2024-03-20T02:48:41.725Z,64.26
2024-03-20T02:51:13.268Z,64.32
2024-03-20T02:53:44.941Z,64.42
2024-03-20T02:56:17.031Z,64.32
2024-03-20T02:58:48.829Z,64.21
2024-03-20T03:01:20.459Z,64.30
2024-03-20T03:03:52.630Z,64.28
2024-03-20T03:06:24.413Z,64.24
2024-03-20T03:08:56.079Z,64.33
2024-03-20T03:11:28.444Z,64.14
2024-03-20T03:14:00.122Z,64.24
2024-03-20T03:16:31.924Z,64.22
2024-03-20T03:19:05.560Z,64.21
2024-03-20T03:21:38.173Z,64.29
2024-03-20T03:24:10.184Z,64.35
2024-03-20T03:26:42.292Z,64.28
2024-03-20T03:29:13.916Z,64.27
2024-03-20T03:31:45.776Z,64.33
2024-03-20T03:34:18.729Z,64.23
2024-03-20T03:36:50.455Z,64.33
2024-03-20T03:39:22.084Z,64.47
2024-03-20T03:41:53.913Z,64.29
2024-03-20T03:44:25.926Z,64.38
2024-03-20T03:46:57.721Z,64.28
2024-03-20T03:49:29.409Z,64.27
2024-03-20T03:52:01.176Z,64.34
2024-03-20T03:54:32.744Z,64.25
2024-03-20T03:57:05.102Z,64.38
2024-03-20T03:59:36.789Z,64.30
2024-03-20T04:02:09.807Z,64.34
2024-03-20T04:04:41.645Z,64.40
2024-03-20T04:07:13.494Z,64.22
2024-03-20T04:09:45.137Z,64.26
2024-03-20T04:12:17.014Z,64.37
2024-03-20T04:14:48.596Z,64.39
2024-03-20T04:17:20.247Z,64.28
2024-03-20T04:19:51.921Z,64.37
2024-03-20T04:22:23.673Z,64.40
2024-03-20T04:24:55.500Z,64.37
2024-03-20T04:27:27.196Z,64.38
2024-03-20T04:29:58.955Z,64.34
2024-03-20T04:32:31.510Z,64.41
2024-03-20T04:35:03.464Z,64.46
2024-03-20T04:37:35.316Z,64.40
2024-03-20T04:40:08.581Z,64.37
2024-03-20T04:42:40.481Z,64.38
2024-03-20T04:45:14.064Z,64.49
2024-03-20T04:47:45.875Z,64.55
2024-03-20T04:50:17.576Z,64.63
2024-03-20T04:53:01.724Z,64.51
2024-03-20T04:55:33.400Z,64.50
2024-03-20T04:58:05.364Z,64.59
2024-03-20T05:00:37.466Z,64.43
2024-03-20T05:03:09.348Z,64.74
2024-03-20T05:05:41.011Z,64.73
2024-03-20T05:08:12.923Z,64.84
2024-03-20T05:10:44.611Z,64.83
2024-03-20T05:13:16.504Z,64.80
2024-03-20T05:15:48.184Z,64.95
2024-03-20T05:18:20.057Z,64.95
2024-03-20T05:20:51.803Z,65.11
2024-03-20T05:23:23.876Z,65.24
2024-03-20T05:25:59.136Z,65.32
2024-03-20T05:28:29.268Z,65.42
2024-03-20T05:31:01.083Z,65.59
2024-03-20T05:33:32.840Z,65.66
2024-03-20T05:36:04.912Z,65.65
2024-03-20T05:38:36.740Z,65.72
2024-03-20T05:41:08.401Z,65.66
2024-03-20T05:43:39.992Z,65.81
2024-03-20T05:46:11.766Z,65.80
2024-03-20T05:48:44.389Z,65.82
2024-03-20T05:51:16.192Z,66.09
2024-03-20T05:53:47.778Z,66.13
2024-03-20T05:56:19.863Z,66.16
2024-03-20T05:58:52.543Z,66.06
2024-03-20T06:01:25.054Z,66.03
2024-03-20T06:03:56.807Z,66.10
2024-03-20T06:06:29.420Z,66.12
2024-03-20T06:09:16.785Z,66.22
2024-03-20T06:11:48.670Z,66.36
2024-03-20T06:14:20.522Z,66.42
2024-03-20T06:16:52.308Z,66.42
2024-03-20T06:19:24.450Z,66.58
2024-03-20T06:21:56.230Z,66.48
2024-03-20T06:24:27.960Z,66.63
2024-03-20T06:26:59.524Z,66.63
2024-03-20T06:29:31.729Z,66.51
2024-03-20T06:32:03.454Z,66.43
2024-03-20T06:34:35.287Z,66.39
2024-03-20T06:37:11.495Z,66.70
2024-03-20T06:39:43.348Z,66.80
2024-03-20T06:42:17.545Z,66.77
2024-03-20T06:44:49.376Z,66.90
2024-03-20T06:47:24.406Z,66.98
2024-03-20T06:49:57.061Z,66.92
2024-03-20T06:52:28.943Z,67.12
2024-03-20T06:55:00.887Z,66.87
2024-03-20T06:57:32.646Z,66.94
2024-03-20T07:00:08.194Z,66.84
2024-03-20T07:02:40.293Z,67.05
2024-03-20T07:05:15.821Z,67.19
2024-03-20T07:07:47.927Z,67.28
2024-03-20T07:10:19.854Z,67.13
2024-03-20T07:12:51.730Z,67.38
2024-03-20T07:15:23.566Z,67.21
2024-03-20T07:17:55.371Z,67.03
2024-03-20T07:20:27.998Z,67.20
2024-03-20T07:23:00.002Z,67.28
2024-03-20T07:25:33.597Z,67.21
2024-03-20T07:28:05.630Z,67.32
2024-03-20T07:30:37.336Z,67.49
2024-03-20T07:33:10.615Z,67.18
2024-03-20T07:35:48.676Z,67.35
2024-03-20T07:38:20.197Z,67.61
2024-03-20T07:40:55.669Z,67.60
2024-03-20T07:43:27.288Z,67.57
2024-03-20T07:45:58.992Z,67.69
2024-03-20T07:48:30.687Z,67.58
2024-03-20T07:51:02.566Z,67.56
2024-03-20T07:53:34.239Z,67.64
2024-03-20T07:56:06.544Z,67.56
2024-03-20T07:58:38.948Z,67.85
2024-03-20T08:01:12.739Z,67.97
2024-03-20T08:03:45.503Z,67.79
2024-03-20T08:06:17.246Z,67.81
2024-03-20T08:08:48.810Z,67.71
2024-03-20T08:11:20.627Z,67.81
2024-03-20T08:13:52.464Z,67.92
2024-03-20T08:16:24.111Z,67.87
2024-03-20T08:18:55.925Z,67.72
2024-03-20T08:21:28.226Z,67.82
2024-03-20T08:24:00.570Z,68.23
2024-03-20T08:26:32.808Z,68.06
2024-03-20T08:29:04.556Z,67.90
2024-03-20T08:31:36.434Z,68.15
2024-03-20T08:34:08.197Z,68.12
2024-03-20T08:36:40.077Z,68.04
2024-03-20T08:39:12.038Z,68.02
2024-03-20T08:41:44.013Z,68.34
2024-03-20T08:44:15.509Z,68.31
2024-03-20T08:46:47.256Z,68.53
2024-03-20T08:49:19.047Z,68.73
2024-03-20T08:51:50.886Z,68.67
2024-03-20T08:54:22.621Z,68.60
2024-03-20T08:56:54.351Z,68.34
2024-03-20T08:59:26.162Z,68.50
2024-03-20T09:01:57.893Z,68.46
2024-03-20T09:04:29.671Z,68.45
2024-03-20T09:07:01.524Z,68.52
2024-03-20T09:09:36.387Z,68.32
2024-03-20T09:12:57.092Z,68.11
2024-03-20T09:15:31.978Z,68.04
2024-03-20T09:18:03.618Z,68.62
2024-03-20T09:20:35.321Z,68.38
2024-03-20T09:23:07.752Z,68.34
2024-03-20T09:25:39.413Z,68.21
2024-03-20T09:28:11.191Z,68.26
2024-03-20T09:30:43.258Z,68.22
2024-03-20T09:33:15.205Z,68.15
2024-03-20T09:35:46.757Z,68.12
2024-03-20T09:38:18.224Z,67.99
2024-03-20T09:40:50.828Z,68.08
2024-03-20T09:43:23.886Z,67.98
2024-03-20T09:45:58.067Z,68.14
2024-03-20T09:48:37.163Z,67.99
2024-03-20T09:51:14.067Z,67.94
2024-03-20T09:53:47.497Z,67.97
2024-03-20T09:56:22.034Z,67.83
2024-03-20T09:58:54.822Z,67.71
2024-03-20T10:01:26.938Z,67.94
2024-03-20T10:03:59.559Z,68.01
2024-03-20T10:06:32.692Z,68.00
2024-03-20T10:09:08.594Z,68.07
2024-03-20T10:11:40.039Z,67.94
2024-03-20T10:14:14.624Z,67.80
2024-03-20T10:16:49.672Z,67.68
2024-03-20T10:19:26.646Z,67.78
2024-03-20T10:21:58.257Z,67.81
2024-03-20T10:24:32.232Z,67.60
2024-03-20T10:27:06.737Z,67.59
2024-03-20T10:29:40.891Z,67.44
2024-03-20T10:32:13.877Z,67.38
2024-03-20T10:34:47.811Z,67.74
2024-03-20T10:37:20.534Z,67.34
2024-03-20T10:39:54.371Z,67.35
2024-03-20T10:42:26.714Z,67.31
2024-03-20T10:44:59.189Z,67.43
2024-03-20T10:47:31.027Z,67.44
2024-03-20T10:50:04.275Z,67.43
2024-03-20T10:52:36.648Z,67.25
2024-03-20T10:55:12.562Z,67.05
2024-03-20T10:57:44.179Z,66.71
2024-03-20T11:00:20.918Z,66.74
2024-03-20T11:02:52.727Z,66.89
2024-03-20T11:05:41.733Z,67.03
2024-03-20T11:08:13.528Z,66.76
2024-03-20T11:10:50.446Z,66.74
2024-03-20T11:13:25.258Z,66.55
2024-03-20T11:15:56.934Z,66.49
2024-03-20T11:18:28.894Z,66.52
2024-03-20T11:21:01.692Z,66.56
2024-03-20T11:23:34.581Z,66.50
2024-03-20T11:26:07.939Z,66.25
2024-03-20T11:28:39.642Z,66.27
2024-03-20T11:31:11.413Z,66.27
2024-03-20T11:33:44.344Z,66.27
2024-03-20T11:36:19.640Z,66.09
2024-03-20T11:38:51.876Z,66.27
2024-03-20T11:41:23.581Z,66.14
2024-03-20T11:43:55.187Z,66.21
2024-03-20T11:46:27.146Z,66.14
2024-03-20T11:48:59.073Z,66.21
2024-03-20T11:51:30.949Z,66.18
2024-03-20T11:54:04.780Z,66.03
2024-03-20T11:56:38.428Z,66.07
2024-03-20T11:59:10.790Z,66.11
2024-03-20T12:01:42.506Z,65.92
2024-03-20T12:04:14.560Z,65.64
2024-03-20T12:06:46.552Z,65.61
2024-03-20T12:09:18.823Z,65.52
2024-03-20T12:11:50.425Z,65.30
2024-03-20T12:14:22.249Z,65.30
2024-03-20T12:16:54.752Z,65.24
2024-03-20T12:19:26.297Z,65.24
2024-03-20T12:21:58.101Z,65.26
2024-03-20T12:24:29.699Z,65.23
2024-03-20T12:27:01.476Z,65.23
2024-03-20T12:29:33.501Z,65.12
2024-03-20T12:32:05.824Z,65.20
2024-03-20T12:34:38.159Z,65.20
2024-03-20T12:37:12.298Z,65.16
2024-03-20T12:39:45.664Z,65.36
2024-03-20T12:42:17.447Z,65.29
2024-03-20T12:44:49.225Z,65.22
2024-03-20T12:47:21.145Z,65.16
2024-03-20T12:49:53.880Z,65.01
2024-03-20T12:52:26.511Z,65.19
2024-03-20T12:54:59.531Z,64.89
2024-03-20T12:57:31.140Z,64.90
2024-03-20T13:00:03.283Z,64.66
2024-03-20T13:02:35.735Z,64.72
2024-03-20T13:05:10.561Z,64.74
2024-03-20T13:07:42.581Z,64.73
2024-03-20T13:10:14.899Z,64.49
2024-03-20T13:12:46.822Z,64.28
2024-03-20T13:15:18.445Z,64.16
2024-03-20T13:17:50.349Z,63.75
2024-03-20T13:20:22.306Z,63.51
2024-03-20T13:22:53.951Z,63.69
2024-03-20T13:25:30.280Z,63.70
2024-03-20T13:28:02.809Z,63.53
2024-03-20T13:30:34.818Z,63.46
2024-03-20T13:33:07.007Z,63.32
2024-03-20T13:35:38.588Z,63.21
2024-03-20T13:38:15.313Z,63.14
2024-03-20T13:40:52.352Z,62.99
2024-03-20T13:43:40.290Z,63.17
2024-03-20T13:46:13.047Z,63.04
2024-03-20T13:48:45.099Z,62.82
2024-03-20T13:51:18.972Z,62.88
2024-03-20T13:53:52.518Z,62.68
2024-03-20T13:56:24.364Z,62.59
2024-03-20T13:58:56.173Z,62.52
2024-03-20T14:01:28.391Z,62.42
2024-03-20T14:04:00.805Z,62.62
2024-03-20T14:06:32.328Z,62.54
2024-03-20T14:09:04.116Z,62.70
2024-03-20T14:11:35.742Z,62.65
2024-03-20T14:14:07.647Z,62.31
2024-03-20T14:16:39.666Z,62.38
2024-03-20T14:19:11.442Z,62.11
2024-03-20T14:21:43.042Z,62.10
2024-03-20T14:24:16.948Z,62.35
2024-03-20T14:26:49.377Z,62.17
2024-03-20T14:29:21.003Z,62.13
2024-03-20T14:31:52.976Z,61.95
2024-03-20T14:34:25.111Z,61.74
2024-03-20T14:36:56.937Z,61.82
2024-03-20T14:39:29.284Z,61.75
2024-03-20T14:42:00.925Z,61.60
2024-03-20T14:44:33.475Z,61.72
2024-03-20T14:47:07.210Z,61.84
2024-03-20T14:49:38.936Z,61.48
2024-03-20T14:52:15.845Z,61.53
2024-03-20T14:54:47.490Z,61.54
2024-03-20T14:57:19.502Z,61.47
2024-03-20T14:59:51.149Z,61.52
2024-03-20T15:02:29.562Z,61.32
2024-03-20T15:05:01.144Z,61.42
2024-03-20T15:07:33.322Z,61.32
2024-03-20T15:10:05.266Z,61.41
2024-03-20T15:12:36.949Z,61.33
2024-03-20T15:15:10.896Z,61.08
2024-03-20T15:17:43.052Z,61.17
2024-03-20T15:20:14.605Z,61.09
2024-03-20T15:22:46.879Z,61.03
2024-03-20T15:25:18.638Z,60.94
2024-03-20T15:27:51.024Z,60.97
2024-03-20T15:30:22.697Z,60.91
2024-03-20T15:32:54.424Z,60.94
2024-03-20T15:35:26.235Z,60.79
2024-03-20T15:37:58.115Z,60.88
2024-03-20T15:40:29.793Z,60.91
2024-03-20T15:43:01.395Z,60.76
2024-03-20T15:45:32.873Z,60.85
2024-03-20T15:48:06.596Z,60.78
2024-03-20T15:50:39.415Z,60.73
2024-03-20T15:53:17.237Z,60.74
2024-03-20T15:58:50.613Z,60.54
2024-03-20T16:01:21.697Z,60.62
2024-03-20T16:03:51.033Z,60.76
2024-03-20T16:06:20.530Z,60.75
2024-03-20T16:08:49.262Z,60.75
2024-03-20T16:11:18.084Z,60.84
2024-03-20T16:13:48.028Z,60.80
2024-03-20T16:16:19.992Z,60.79
2024-03-20T16:18:48.939Z,60.71
2024-03-20T16:21:17.563Z,60.57
2024-03-20T16:23:46.300Z,60.75
2024-03-20T16:26:15.801Z,60.66
2024-03-20T16:28:45.426Z,60.70
2024-03-20T16:31:14.270Z,60.76
2024-03-20T16:33:42.985Z,60.61
2024-03-20T16:36:13.847Z,60.82
2024-03-20T16:38:44.039Z,60.73
2024-03-20T16:41:19.919Z,60.70
2024-03-20T16:43:54.827Z,60.91
2024-03-20T16:46:23.726Z,60.77
2024-03-20T16:48:52.482Z,60.77
2024-03-20T16:51:21.284Z,60.69
2024-03-20T16:53:49.937Z,60.84
2024-03-20T16:56:18.667Z,60.80
2024-03-20T16:58:47.134Z,60.81
2024-03-20T17:01:15.901Z,60.97
2024-03-20T17:03:45.121Z,60.71
2024-03-20T17:06:13.540Z,60.92
2024-03-20T17:08:42.639Z,60.85
2024-03-20T17:11:11.331Z,61.05
2024-03-20T17:13:40.059Z,61.03
2024-03-20T17:16:08.873Z,60.96
2024-03-20T17:18:37.491Z,61.00
2024-03-20T17:21:07.650Z,60.97
2024-03-20T17:23:36.248Z,60.99
2024-03-20T17:26:05.515Z,61.09
2024-03-20T17:28:35.295Z,60.96
2024-03-20T17:31:04.374Z,60.97
2024-03-20T17:33:33.062Z,60.99
2024-03-20T17:36:07.349Z,61.01
2024-03-20T17:38:36.134Z,61.03
2024-03-20T17:41:05.112Z,61.01
2024-03-20T17:43:34.031Z,61.20
2024-03-20T17:46:04.239Z,60.99
2024-03-20T17:48:33.175Z,61.27
2024-03-20T17:51:02.756Z,61.25
2024-03-20T17:53:32.038Z,61.37
2024-03-20T17:56:00.505Z,61.32
2024-03-20T17:58:29.298Z,61.53
2024-03-20T18:00:57.899Z,61.43
2024-03-20T18:03:26.670Z,61.38
2024-03-20T18:05:55.696Z,61.77
2024-03-20T18:08:24.391Z,61.63
2024-03-20T18:10:53.281Z,61.46
2024-03-20T18:13:22.489Z,61.82
2024-03-20T18:15:55.219Z,61.55
2024-03-20T18:18:24.698Z,61.75
2024-03-20T18:20:53.381Z,61.72
2024-03-20T18:23:22.826Z,61.61
2024-03-20T18:25:51.476Z,61.91
2024-03-20T18:28:20.244Z,62.06
2024-03-20T18:30:49.600Z,62.12
2024-03-20T18:33:18.587Z,62.10
2024-03-20T18:35:47.585Z,62.04
2024-03-20T18:38:16.410Z,61.84
2024-03-20T18:40:45.686Z,62.22
2024-03-20T18:43:14.209Z,62.42
2024-03-20T18:45:42.932Z,62.41
2024-03-20T18:48:14.271Z,62.03
2024-03-20T18:50:43.494Z,62.14
2024-03-20T18:53:12.020Z,62.16
2024-03-20T18:55:40.870Z,62.19
2024-03-20T18:58:09.384Z,62.49
2024-03-20T19:00:38.100Z,62.37
2024-03-20T19:03:06.737Z,62.41
2024-03-20T19:05:36.023Z,62.60
2024-03-20T19:08:05.846Z,62.62
2024-03-20T19:10:34.319Z,62.33
2024-03-20T19:13:03.046Z,62.57
2024-03-20T19:15:32.843Z,62.28
2024-03-20T19:18:01.808Z,62.84
2024-03-20T19:20:30.689Z,62.42
2024-03-20T19:22:59.370Z,62.32
2024-03-20T19:25:32.553Z,62.45
2024-03-20T19:28:01.384Z,62.72
2024-03-20T19:30:30.072Z,62.84
2024-03-20T19:33:00.722Z,62.98
2024-03-20T19:35:29.336Z,62.98
2024-03-20T19:37:58.379Z,62.84
2024-03-20T19:40:28.143Z,62.97
2024-03-20T19:42:56.785Z,63.20
2024-03-20T19:45:25.816Z,63.15
2024-03-20T19:47:54.612Z,63.19
2024-03-20T19:50:23.332Z,63.35
2024-03-20T19:52:52.286Z,63.13
2024-03-20T19:55:21.194Z,63.00
2024-03-20T19:57:50.293Z,63.10
2024-03-20T20:00:22.259Z,63.28
2024-03-20T20:02:53.931Z,63.42
2024-03-20T20:05:22.675Z,63.44
2024-03-20T20:07:51.518Z,63.73
2024-03-20T20:10:20.406Z,63.96
2024-03-20T20:12:49.464Z,63.33
2024-03-20T20:15:19.683Z,63.69
2024-03-20T20:17:48.352Z,63.35
2024-03-20T20:20:18.847Z,63.68
2024-03-20T20:22:47.997Z,63.48
2024-03-20T20:25:18.162Z,63.77
2024-03-20T20:27:49.119Z,63.50
2024-03-20T20:30:18.774Z,63.69
2024-03-20T20:32:48.552Z,63.81
2024-03-20T20:35:17.092Z,63.91
2024-03-20T20:37:45.832Z,63.85
2024-03-20T20:40:16.839Z,63.74
2024-03-20T20:42:45.572Z,63.90
2024-03-20T20:45:14.264Z,64.19
2024-03-20T20:47:42.911Z,64.05
2024-03-20T20:50:12.232Z,64.35
2024-03-20T20:52:40.847Z,64.07
2024-03-20T20:55:13.195Z,64.33
2024-03-20T20:57:42.005Z,64.12
2024-03-20T21:00:14.169Z,64.06
2024-03-20T21:03:01.074Z,64.18
2024-03-20T21:05:44.431Z,64.38
2024-03-20T21:08:31.482Z,64.39
2024-03-20T21:11:26.659Z,64.21
2024-03-20T21:14:13.362Z,64.39
2024-03-20T21:17:00.383Z,64.45
2024-03-20T21:19:47.703Z,64.60
2024-03-20T21:22:16.732Z,64.80
2024-03-20T21:24:46.004Z,64.55
2024-03-20T21:27:14.687Z,64.60
2024-03-20T21:29:43.594Z,64.68
2024-03-20T21:32:12.427Z,64.73
2024-03-20T21:34:41.465Z,64.87
2024-03-20T21:37:11.054Z,64.56
2024-03-20T21:39:40.842Z,64.60
2024-03-20T21:42:10.788Z,64.69
2024-03-20T21:44:40.635Z,64.53
2024-03-20T21:47:12.058Z,64.53
2024-03-20T21:49:41.777Z,64.78
2024-03-20T21:52:10.829Z,64.76
2024-03-20T21:54:39.573Z,64.99
2024-03-20T21:57:08.218Z,64.89
2024-03-20T21:59:39.204Z,64.95
2024-03-20T22:02:16.841Z,65.03
2024-03-20T22:04:45.647Z,64.86
2024-03-20T22:07:14.372Z,64.98
2024-03-20T22:10:05.920Z,65.17
2024-03-20T22:12:32.734Z,64.93
2024-03-20T22:15:01.258Z,65.24
2024-03-20T22:17:31.271Z,64.85
2024-03-20T22:20:00.193Z,64.70
2024-03-20T22:22:28.893Z,65.14
2024-03-20T22:24:57.579Z,65.15
2024-03-20T22:27:26.384Z,65.19
2024-03-20T22:29:54.890Z,65.13
2024-03-20T22:32:23.771Z,65.28
2024-03-20T22:34:52.333Z,65.51
2024-03-20T22:37:21.850Z,65.62
2024-03-20T22:39:50.480Z,65.45
2024-03-20T22:42:19.362Z,65.62
2024-03-20T22:44:47.885Z,65.34
2024-03-20T22:47:18.452Z,65.46
2024-03-20T22:49:48.827Z,65.76
2024-03-20T22:52:17.593Z,65.45
2024-03-20T22:54:46.199Z,65.62
2024-03-20T22:57:15.043Z,65.60
2024-03-20T22:59:43.591Z,65.68
2024-03-20T23:02:12.058Z,65.65
2024-03-20T23:04:42.499Z,65.74
2024-03-20T23:07:11.167Z,66.04
2024-03-20T23:09:39.847Z,65.79
2024-03-20T23:12:10.255Z,66.08
2024-03-20T23:14:39.186Z,65.96
2024-03-20T23:17:10.745Z,65.88
2024-03-20T23:19:39.527Z,65.98
2024-03-20T23:22:08.166Z,66.15
2024-03-20T23:24:36.876Z,66.12
2024-03-20T23:27:05.921Z,66.09
2024-03-20T23:29:34.715Z,66.42
2024-03-20T23:32:04.215Z,66.44
2024-03-20T23:34:33.811Z,66.36
2024-03-20T23:37:02.800Z,66.30
2024-03-20T23:39:32.910Z,66.58
2024-03-20T23:42:02.826Z,66.59
2024-03-20T23:44:31.476Z,66.79
2024-03-20T23:47:00.191Z,66.80
2024-03-20T23:49:29.128Z,66.87
2024-03-20T23:51:58.223Z,66.48
2024-03-20T23:54:26.999Z,66.80
2024-03-20T23:56:55.665Z,66.85
2024-03-20T23:59:24.454Z,66.37
